Aeroporto :
LOGIN :

Iscrizione | Disclaimer

   EN    FR    IT 

 










Sommario :    VFR   VFR Marginale   IFR   IFR Intensivo   IFR Molto Intensivo
Visibilità : 
Base nubi : 
>= 8 km
>= 3000ft
5 / 8 km
1000 / 3000 ft
1500m / 5 km
500 / 1000 ft
800 / 1500m
200 / 500 ft
< 800m
< 200 ft
Simboli :   Temporali  Nebbia  Neve Forte  Precipitazioni Forti  Vento > 20 kt
SIGMETs :   Varie  Temporali  Ghiacco  Turbolenza  Onda orograficha  Ceneri Vulcaniche






- Altitudine del aeroporto : 257 ft
- Codice IATA : MAN


EGCC - Manchester

ULTIMO METAR :
  • 220620Z AUTO 22008KT 9999 OVC029 09/06 Q1002 NOSIG

METARs OBSOLETI :
  • 220550Z AUTO 22007KT 9999 BKN027 OVC034 09/06 Q1002 NOSIG
  • 220520Z AUTO 21008KT 9999 OVC028 09/06 Q1002 NOSIG
  • 220450Z AUTO 22007KT 9999 OVC027 09/06 Q1002 NOSIG
  • 220420Z AUTO 23010KT 9999 OVC026 09/06 Q1002 NOSIG
  • 220350Z AUTO 22005KT 9999 BKN024 OVC030 09/08 Q1001

TAF TAF EGCC
Valido dal 22 a 06 ore il 23 a 12 ore UTC


220456Z 2206/2312 25010KT 9999 SCT025
PROB30
TEMPO 2206/2212 7000 SHRA BKN014
PROB30
TEMPO 2206/2209 28015G25KT
BECMG 2218/2221 19005KT
TEMPO 2309/2312 6000 RA BKN010
PROB30
TEMPO 2309/2312 BKN006
ATIS : +44 161 499 2324



MetMap, La meteo Aeronautica in un colpo d'occhio ! - Copyright ORBIFLY Dicembre 2007 - Disclaimer

ORBIFLY MET'MAP TEAM :

Programmazione e sviluppo : Alexandra Zaïnal
Concezione : Baudouin d'Aumeries
Aiuto per la programmazione : Marc-Olivier Méhu
Supporto tecnico e logistico : Manuel Goepfert
Aiuto per la traduzione : Arnaldo La Scala

Contatto : metmap@orbifly.com




FONTI E CREDITI :

   NOAA